Time;durP1;ratioP1;P1;durP2;ratioP2;P2;SDS_P1;SDS_P2;PMS_P1;PMS_P2;Temp;Humidity;BMP_temperature;BMP_pressure;BME280_temperature;BME280_humidity;BME280_pressure;Samples;Min_cycle;Max_cycle;Signal;HPM_P1;HPM_P2
2023/08/23 00:02:23;;;;;;;11.97;9.90;;;19.40;99.90;;;;;;4992320;28;20799;-77
2023/08/23 00:04:51;;;;;;;14.20;10.00;;;19.40;99.90;;;;;;4991236;28;20452;-77
2023/08/23 00:07:17;;;;;;;16.53;10.17;;;19.40;99.90;;;;;;4991574;28;20454;-76
2023/08/23 00:09:44;;;;;;;14.27;9.60;;;19.40;99.90;;;;;;4992270;28;20506;-76
2023/08/23 00:12:11;;;;;;;11.93;9.33;;;19.30;99.90;;;;;;4991405;28;20452;-76
2023/08/23 00:14:38;;;;;;;10.90;9.23;;;19.30;99.90;;;;;;4991654;28;20459;-77
2023/08/23 00:17:06;;;;;;;12.13;9.87;;;19.30;99.90;;;;;;4991158;28;20503;-76
2023/08/23 00:19:33;;;;;;;13.10;9.50;;;19.20;99.90;;;;;;4991457;28;20534;-76
2023/08/23 00:22:00;;;;;;;14.30;10.30;;;19.20;99.90;;;;;;4991055;28;20851;-76
2023/08/23 00:24:26;;;;;;;10.20;8.97;;;19.10;99.90;;;;;;4991203;28;20455;-77
2023/08/23 00:26:55;;;;;;;14.17;10.37;;;19.10;99.90;;;;;;4990686;28;20505;-76
2023/08/23 00:29:21;;;;;;;14.93;10.50;;;19.00;99.90;;;;;;4991470;28;20522;-77
2023/08/23 00:31:48;;;;;;;13.63;10.73;;;19.00;99.90;;;;;;4991919;28;20455;-76
2023/08/23 00:34:16;;;;;;;11.03;9.93;;;18.90;99.90;;;;;;4990840;28;20463;-76
2023/08/23 00:36:43;;;;;;;12.20;10.23;;;18.90;99.90;;;;;;4991412;28;20482;-76
2023/08/23 00:39:09;;;;;;;10.47;9.47;;;18.90;99.90;;;;;;4991055;28;20817;-77
2023/08/23 00:41:37;;;;;;;16.40;10.93;;;18.90;99.90;;;;;;4991957;28;20447;-77
2023/08/23 00:44:05;;;;;;;15.03;10.23;;;18.80;99.90;;;;;;4991775;28;20451;-76
2023/08/23 00:46:31;;;;;;;15.10;9.70;;;18.90;99.90;;;;;;4991682;28;20446;-76
2023/08/23 00:48:58;;;;;;;12.67;10.10;;;18.80;99.90;;;;;;4989976;28;20498;-77
2023/08/23 00:51:26;;;;;;;11.10;9.90;;;18.80;99.90;;;;;;4991302;28;20498;-76
2023/08/23 00:53:53;;;;;;;14.10;10.43;;;18.80;99.90;;;;;;4990720;28;20510;-76
2023/08/23 00:56:20;;;;;;;13.37;10.17;;;18.80;99.90;;;;;;4991233;28;20487;-76
2023/08/23 00:58:47;;;;;;;13.10;10.00;;;18.80;99.90;;;;;;4990789;28;20887;-76
2023/08/23 01:01:13;;;;;;;11.30;10.10;;;18.80;99.90;;;;;;4991409;28;20451;-76
2023/08/23 01:03:40;;;;;;;16.97;9.93;;;18.80;99.90;;;;;;4991153;28;20463;-76
2023/08/23 01:06:23;;;;;;;12.97;10.80;;;18.90;99.90;;;;;;4990920;28;20923;-76
2023/08/23 01:09:01;;;;;;;13.30;9.90;;;18.70;99.90;;;;;;4991313;28;20521;-76
2023/08/23 01:11:37;;;;;;;11.77;9.57;;;18.80;99.90;;;;;;4991395;28;20530;-77
2023/08/23 01:14:05;;;;;;;18.33;10.67;;;18.80;99.90;;;;;;4990427;28;20458;-77
2023/08/23 01:16:33;;;;;;;19.10;10.67;;;18.80;99.90;;;;;;4992107;28;20486;-77
2023/08/23 01:19:02;;;;;;;14.90;11.20;;;18.70;99.90;;;;;;4994300;28;20924;-77
2023/08/23 01:21:34;;;;;;;13.07;9.60;;;18.70;99.90;;;;;;4994727;28;21045;-77
2023/08/23 01:24:08;;;;;;;13.70;10.00;;;18.70;99.90;;;;;;4994184;28;20467;-76
2023/08/23 01:26:35;;;;;;;13.60;9.50;;;18.70;99.90;;;;;;4993915;28;21230;-76
2023/08/23 01:29:02;;;;;;;12.23;10.20;;;18.70;99.90;;;;;;4994547;28;20486;-76
2023/08/23 01:31:32;;;;;;;13.80;10.60;;;18.70;99.90;;;;;;4994546;28;20450;-77
2023/08/23 01:34:05;;;;;;;10.73;9.67;;;18.60;99.90;;;;;;4994329;28;20455;-77
2023/08/23 01:36:32;;;;;;;20.80;10.27;;;18.60;99.90;;;;;;4994811;28;20486;-77
2023/08/23 01:39:00;;;;;;;13.40;10.20;;;18.50;99.90;;;;;;4994147;28;20542;-77
2023/08/23 01:41:28;;;;;;;14.40;10.03;;;18.60;99.90;;;;;;4994175;28;20471;-77
2023/08/23 01:43:55;;;;;;;16.70;10.53;;;18.50;99.90;;;;;;4994099;28;20493;-77
2023/08/23 01:46:21;;;;;;;12.83;10.77;;;18.60;99.90;;;;;;4994240;28;20467;-77
2023/08/23 01:48:48;;;;;;;16.23;10.97;;;18.50;99.90;;;;;;4994330;28;20470;-77
2023/08/23 01:51:15;;;;;;;11.53;9.87;;;18.60;99.90;;;;;;4994193;28;20477;-77
2023/08/23 01:53:41;;;;;;;18.43;11.43;;;18.60;99.90;;;;;;4994479;28;20447;-76
2023/08/23 01:56:08;;;;;;;11.93;10.27;;;18.50;99.90;;;;;;4994150;28;20491;-76
2023/08/23 01:58:36;;;;;;;12.40;10.80;;;18.50;99.90;;;;;;4994061;28;20529;-76
2023/08/23 02:01:02;;;;;;;14.33;10.60;;;18.50;99.90;;;;;;4993641;28;20837;-77
2023/08/23 02:03:29;;;;;;;12.90;10.20;;;18.50;99.90;;;;;;4993269;28;20958;-77
2023/08/23 02:05:56;;;;;;;12.70;10.17;;;18.50;99.90;;;;;;4993451;28;20459;-77
2023/08/23 02:08:22;;;;;;;16.03;10.90;;;18.40;99.90;;;;;;4993743;28;20502;-77
2023/08/23 02:10:49;;;;;;;13.23;10.80;;;18.40;99.90;;;;;;4993762;28;20948;-76
2023/08/23 02:13:16;;;;;;;12.00;10.43;;;18.40;99.90;;;;;;4993833;28;20447;-77
2023/08/23 02:15:45;;;;;;;11.80;10.60;;;18.30;99.90;;;;;;4993627;28;20472;-77
2023/08/23 02:18:12;;;;;;;12.60;10.10;;;18.30;99.90;;;;;;4993421;28;20950;-77
2023/08/23 02:20:38;;;;;;;14.97;10.13;;;18.30;99.90;;;;;;4993362;28;20517;-77
2023/08/23 02:23:05;;;;;;;18.10;11.23;;;18.30;99.90;;;;;;4993995;28;20447;-76
2023/08/23 02:25:32;;;;;;;13.13;10.70;;;18.30;99.90;;;;;;4993344;28;20451;-77
2023/08/23 02:27:58;;;;;;;16.40;11.27;;;18.20;99.90;;;;;;4992547;28;20460;-77
2023/08/23 02:30:25;;;;;;;15.73;10.50;;;18.20;99.90;;;;;;4992846;28;20447;-77
2023/08/23 02:32:53;;;;;;;18.70;10.77;;;18.20;99.90;;;;;;4993402;28;20514;-76
2023/08/23 02:35:19;;;;;;;18.83;11.70;;;18.10;99.90;;;;;;4992843;28;20455;-77
2023/08/23 02:37:46;;;;;;;15.07;12.20;;;18.10;99.90;;;;;;4993452;28;20978;-76
2023/08/23 02:40:13;;;;;;;13.60;11.57;;;18.10;99.90;;;;;;4993000;28;21018;-76
2023/08/23 02:42:39;;;;;;;16.83;13.00;;;18.00;99.90;;;;;;4993430;28;20939;-77
2023/08/23 02:45:07;;;;;;;12.93;11.67;;;18.00;99.90;;;;;;4993152;28;20451;-77
2023/08/23 02:47:34;;;;;;;21.03;12.20;;;18.00;99.90;;;;;;4992553;28;20518;-76
2023/08/23 02:50:02;;;;;;;15.10;11.87;;;18.00;99.90;;;;;;4993160;28;20474;-76
2023/08/23 02:52:28;;;;;;;15.23;11.30;;;18.00;99.90;;;;;;4993476;28;20455;-76
2023/08/23 02:54:55;;;;;;;12.67;10.03;;;17.90;99.90;;;;;;4992740;28;20463;-77
2023/08/23 02:57:22;;;;;;;18.70;11.30;;;17.90;99.90;;;;;;4992732;28;20517;-77
2023/08/23 02:59:48;;;;;;;17.53;12.03;;;17.90;99.90;;;;;;4992801;28;20521;-77
2023/08/23 03:02:15;;;;;;;12.47;11.30;;;17.90;99.90;;;;;;4992812;28;20943;-76
2023/08/23 03:04:41;;;;;;;17.60;11.20;;;17.80;99.90;;;;;;4992989;28;20455;-77
2023/08/23 03:07:09;;;;;;;17.77;11.57;;;17.80;99.90;;;;;;4992662;28;20450;-76
2023/08/23 03:09:36;;;;;;;13.00;10.80;;;17.80;99.90;;;;;;4992925;28;20471;-77
2023/08/23 03:12:03;;;;;;;12.93;11.63;;;17.80;99.90;;;;;;4992269;28;20463;-77
2023/08/23 03:14:30;;;;;;;13.73;11.90;;;17.80;99.90;;;;;;4992898;28;20451;-77
2023/08/23 03:16:57;;;;;;;14.20;11.93;;;17.70;99.90;;;;;;4991932;28;20494;-76
2023/08/23 03:19:23;;;;;;;15.50;11.60;;;17.70;99.90;;;;;;4992659;28;20471;-77
2023/08/23 03:21:50;;;;;;;15.60;12.97;;;17.70;99.90;;;;;;4992706;28;20509;-77
2023/08/23 03:24:18;;;;;;;17.23;12.13;;;17.70;99.90;;;;;;4991782;28;20442;-76
2023/08/23 03:26:45;;;;;;;13.93;12.33;;;17.70;99.90;;;;;;4992613;28;20425;-76
2023/08/23 03:29:11;;;;;;;15.20;12.27;;;17.70;99.90;;;;;;4992349;28;21032;-77
2023/08/23 03:31:38;;;;;;;18.90;11.77;;;17.70;99.90;;;;;;4992498;28;21001;-76
2023/08/23 03:34:05;;;;;;;13.40;12.03;;;17.60;99.90;;;;;;4990432;28;20451;-76
2023/08/23 03:36:31;;;;;;;15.00;13.13;;;17.60;99.90;;;;;;4991870;28;20513;-77
2023/08/23 03:38:58;;;;;;;14.30;12.70;;;17.50;99.90;;;;;;4991117;28;20454;-77
2023/08/23 03:41:26;;;;;;;17.27;12.20;;;17.60;99.90;;;;;;4991662;28;20459;-77
2023/08/23 03:43:53;;;;;;;15.07;12.80;;;17.60;99.90;;;;;;4992420;28;20422;-77
2023/08/23 03:46:23;;;;;;;26.43;14.73;;;17.50;99.90;;;;;;4992169;28;20459;-77
2023/08/23 03:48:50;;;;;;;21.43;14.13;;;17.50;99.90;;;;;;4991804;28;21089;-77
2023/08/23 03:51:16;;;;;;;17.33;14.70;;;17.40;99.90;;;;;;4991886;28;20455;-77
2023/08/23 03:53:43;;;;;;;18.63;14.50;;;17.40;99.90;;;;;;4992451;28;20486;-77
2023/08/23 03:56:10;;;;;;;19.30;14.60;;;17.30;99.90;;;;;;4991856;28;20830;-76
2023/08/23 03:58:38;;;;;;;18.73;16.17;;;17.30;99.90;;;;;;4991966;28;20534;-76
2023/08/23 04:01:05;;;;;;;29.80;17.40;;;17.30;99.90;;;;;;4991826;28;20551;-77
2023/08/23 04:03:31;;;;;;;28.97;17.90;;;17.20;99.90;;;;;;4991879;28;20480;-76
2023/08/23 04:05:58;;;;;;;24.33;17.30;;;17.20;99.90;;;;;;4991882;28;20465;-77
2023/08/23 04:08:25;;;;;;;26.20;17.43;;;17.20;99.90;;;;;;4991645;28;20467;-76
2023/08/23 04:10:51;;;;;;;21.10;16.77;;;17.10;99.90;;;;;;4992032;28;20702;-77
2023/08/23 04:13:18;;;;;;;22.60;16.90;;;17.00;99.90;;;;;;4991637;28;20505;-77
2023/08/23 04:15:47;;;;;;;20.60;16.97;;;17.00;99.90;;;;;;4991473;28;20441;-76
2023/08/23 04:18:13;;;;;;;20.03;15.83;;;17.00;99.90;;;;;;4991280;28;20549;-77
2023/08/23 04:20:41;;;;;;;20.10;16.80;;;16.90;99.90;;;;;;4992199;28;20426;-76
2023/08/23 04:23:08;;;;;;;25.10;17.00;;;16.90;99.90;;;;;;4991976;28;20865;-76
2023/08/23 04:25:34;;;;;;;19.97;17.03;;;16.90;99.90;;;;;;4991306;28;20520;-76
2023/08/23 04:28:01;;;;;;;18.90;15.53;;;16.90;99.90;;;;;;4991309;28;20422;-77
2023/08/23 04:30:28;;;;;;;24.70;15.53;;;16.90;99.90;;;;;;4991438;28;20426;-76
2023/08/23 04:32:56;;;;;;;20.63;14.63;;;16.90;99.90;;;;;;4991302;28;20425;-77
2023/08/23 04:35:22;;;;;;;17.83;15.10;;;16.90;99.90;;;;;;4990381;28;20437;-76
2023/08/23 04:37:49;;;;;;;28.67;15.13;;;16.90;99.90;;;;;;4990981;28;20516;-76
2023/08/23 04:40:16;;;;;;;21.63;14.50;;;17.00;99.90;;;;;;4991349;28;20479;-76
2023/08/23 04:42:42;;;;;;;26.40;17.07;;;17.00;99.90;;;;;;4991462;28;20422;-77
2023/08/23 04:45:10;;;;;;;26.53;15.00;;;17.00;99.90;;;;;;4990704;28;20459;-77
2023/08/23 04:47:36;;;;;;;25.33;15.03;;;17.00;99.90;;;;;;4990909;28;20438;-76
2023/08/23 04:50:06;;;;;;;17.57;15.23;;;17.00;99.90;;;;;;4991493;28;20471;-77
2023/08/23 04:52:33;;;;;;;20.70;15.03;;;16.90;99.90;;;;;;4994648;28;20421;-77
2023/08/23 04:54:59;;;;;;;19.30;14.57;;;17.00;99.90;;;;;;4995212;28;20474;-76
2023/08/23 04:57:26;;;;;;;18.00;15.30;;;17.00;99.90;;;;;;4994751;28;20487;-76
2023/08/23 04:59:54;;;;;;;23.13;17.07;;;17.10;99.90;;;;;;4994922;28;20456;-75
2023/08/23 05:02:20;;;;;;;18.27;15.13;;;17.10;99.90;;;;;;4994384;28;20455;-68
2023/08/23 05:04:47;;;;;;;18.77;14.30;;;17.20;99.90;;;;;;4995261;28;20845;-68
2023/08/23 05:07:15;;;;;;;17.03;15.30;;;17.40;99.90;;;;;;4995002;28;20493;-68
2023/08/23 05:09:42;;;;;;;17.83;15.77;;;17.70;99.90;;;;;;4995041;28;20470;-68
2023/08/23 05:12:09;;;;;;;15.50;13.00;;;17.90;99.90;;;;;;4994658;28;20947;-69
2023/08/23 05:14:35;;;;;;;18.00;14.70;;;18.10;99.90;;;;;;4994210;28;20486;-69
2023/08/23 05:17:02;;;;;;;25.63;14.50;;;18.10;99.90;;;;;;4991549;28;20517;-68
2023/08/23 05:19:29;;;;;;;16.33;14.47;;;18.10;99.90;;;;;;4994942;28;20474;-68
2023/08/23 05:21:55;;;;;;;20.27;14.83;;;18.00;99.90;;;;;;4994806;28;20509;-68
2023/08/23 05:24:23;;;;;;;18.40;14.97;;;17.90;99.90;;;;;;4994357;28;20451;-68
2023/08/23 05:26:50;;;;;;;18.20;14.83;;;17.80;99.90;;;;;;4994173;28;20451;-68
2023/08/23 05:29:16;;;;;;;18.20;14.60;;;17.90;99.90;;;;;;4994450;28;20457;-68
2023/08/23 05:31:43;;;;;;;21.13;14.33;;;17.90;99.90;;;;;;4994043;28;20828;-69
2023/08/23 05:34:10;;;;;;;23.13;14.27;;;18.00;99.90;;;;;;4994635;28;20502;-69
2023/08/23 05:36:36;;;;;;;20.33;15.33;;;18.20;99.90;;;;;;4994363;28;20471;-71
2023/08/23 05:39:04;;;;;;;19.33;13.90;;;18.30;99.90;;;;;;4993796;28;20495;-68
2023/08/23 05:41:32;;;;;;;17.03;13.20;;;18.50;99.90;;;;;;4994553;28;20447;-68
2023/08/23 05:43:59;;;;;;;19.03;13.80;;;18.60;99.90;;;;;;4990203;28;20455;-69
2023/08/23 05:46:25;;;;;;;14.83;13.17;;;18.80;99.90;;;;;;4993525;28;20521;-69
2023/08/23 05:48:52;;;;;;;19.30;13.93;;;18.90;99.90;;;;;;4990882;28;20521;-69
2023/08/23 05:51:19;;;;;;;14.50;13.00;;;19.20;99.90;;;;;;4989527;28;20518;-68
2023/08/23 05:53:45;;;;;;;16.00;12.70;;;19.40;99.90;;;;;;4990126;28;20529;-70
2023/08/23 05:56:12;;;;;;;18.30;12.43;;;19.50;99.90;;;;;;4989802;28;20486;-70
2023/08/23 05:58:40;;;;;;;20.50;12.17;;;19.70;99.90;;;;;;4989783;28;21029;-69
2023/08/23 06:01:07;;;;;;;15.50;12.40;;;19.90;99.90;;;;;;4989754;28;20463;-69
2023/08/23 06:03:33;;;;;;;17.60;12.43;;;20.00;99.90;;;;;;4988723;28;20506;-69
2023/08/23 06:06:00;;;;;;;14.57;12.50;;;20.20;99.90;;;;;;4988332;28;20506;-70
2023/08/23 06:08:27;;;;;;;16.27;12.67;;;20.30;99.90;;;;;;4988350;28;20509;-69
2023/08/23 06:10:53;;;;;;;17.07;12.60;;;20.50;99.90;;;;;;4988844;28;20497;-69
2023/08/23 06:13:20;;;;;;;16.57;13.10;;;20.60;99.90;;;;;;4988708;28;20507;-69
2023/08/23 06:15:48;;;;;;;13.87;12.30;;;20.80;99.90;;;;;;4989007;28;20827;-69
2023/08/23 06:18:15;;;;;;;19.33;12.70;;;21.00;99.90;;;;;;4987651;28;20517;-69
2023/08/23 06:20:43;;;;;;;19.70;12.00;;;21.20;99.90;;;;;;4989366;28;20538;-69
2023/08/23 06:23:09;;;;;;;20.53;13.63;;;21.40;99.90;;;;;;4988306;28;20876;-69
2023/08/23 06:25:37;;;;;;;16.67;13.37;;;21.50;99.90;;;;;;4988062;28;20868;-69
2023/08/23 06:28:04;;;;;;;22.90;12.30;;;21.70;99.90;;;;;;4988462;28;20530;-69
2023/08/23 06:30:30;;;;;;;13.17;11.47;;;21.70;99.90;;;;;;4989119;28;20443;-69
2023/08/23 06:32:58;;;;;;;12.67;11.37;;;21.90;99.90;;;;;;4989013;28;20517;-69
2023/08/23 06:35:26;;;;;;;19.93;12.43;;;22.10;99.90;;;;;;4988002;28;20452;-69
2023/08/23 06:37:52;;;;;;;16.87;11.07;;;22.20;99.90;;;;;;4988883;28;20489;-69
2023/08/23 06:40:19;;;;;;;16.57;11.57;;;22.30;99.90;;;;;;4988674;28;20529;-69
2023/08/23 06:42:46;;;;;;;12.50;11.30;;;22.30;99.90;;;;;;4989343;28;20587;-69
2023/08/23 06:45:12;;;;;;;20.03;11.10;;;22.40;99.90;;;;;;4989175;28;20514;-69
2023/08/23 06:47:39;;;;;;;12.87;11.40;;;22.40;99.90;;;;;;4988475;28;20823;-69
2023/08/23 06:50:08;;;;;;;14.50;11.33;;;22.50;99.90;;;;;;4989808;28;20958;-69
2023/08/23 06:52:34;;;;;;;17.93;11.20;;;22.60;99.90;;;;;;4988144;28;20505;-69
2023/08/23 06:55:03;;;;;;;17.10;10.63;;;22.70;99.90;;;;;;4988567;28;20439;-69
2023/08/23 06:57:30;;;;;;;14.30;10.77;;;22.80;99.90;;;;;;4988252;28;20836;-69
2023/08/23 06:59:57;;;;;;;20.07;11.20;;;22.90;99.90;;;;;;4988096;28;20565;-69
2023/08/23 07:02:24;;;;;;;10.60;9.60;;;22.80;99.90;;;;;;4988516;28;20451;-69
2023/08/23 07:04:52;;;;;;;16.20;10.80;;;22.90;99.90;;;;;;4988620;28;20455;-70
2023/08/23 07:07:20;;;;;;;11.00;9.90;;;22.90;99.90;;;;;;4988223;28;20467;-70
2023/08/23 07:09:47;;;;;;;11.83;10.63;;;23.00;99.90;;;;;;4988229;28;20506;-69
2023/08/23 07:12:14;;;;;;;14.43;10.60;;;23.20;99.90;;;;;;4988874;28;20505;-70
2023/08/23 07:14:40;;;;;;;24.00;10.43;;;23.40;99.90;;;;;;4988275;28;20510;-69
2023/08/23 07:17:07;;;;;;;20.63;11.07;;;23.60;99.90;;;;;;4988577;28;20467;-69
2023/08/23 07:19:34;;;;;;;12.27;9.30;;;23.80;99.90;;;;;;4987458;28;20490;-69
2023/08/23 07:22:00;;;;;;;11.47;10.40;;;23.80;99.90;;;;;;4989509;28;20494;-69
2023/08/23 07:24:28;;;;;;;12.27;9.27;;;24.00;99.90;;;;;;4990833;28;20455;-70
2023/08/23 07:26:55;;;;;;;14.77;10.47;;;24.20;99.90;;;;;;4991195;28;20463;-69
2023/08/23 07:29:22;;;;;;;17.83;10.90;;;24.40;99.90;;;;;;4991499;28;20463;-70
2023/08/23 07:31:48;;;;;;;17.23;10.07;;;24.50;99.90;;;;;;4992024;28;20447;-69
2023/08/23 07:34:16;;;;;;;13.07;11.00;;;24.60;99.90;;;;;;4991564;28;20567;-68
2023/08/23 07:36:42;;;;;;;13.10;9.40;;;24.70;99.90;;;;;;4992679;28;20466;-69
2023/08/23 07:39:09;;;;;;;15.20;10.60;;;24.80;99.90;;;;;;4987394;28;20491;-68
2023/08/23 07:41:37;;;;;;;13.83;9.00;;;25.00;99.90;;;;;;4990985;28;20455;-68
2023/08/23 07:44:04;;;;;;;17.30;10.67;;;25.10;99.90;;;;;;4991852;28;20443;-68
2023/08/23 07:46:30;;;;;;;12.53;9.90;;;25.30;99.90;;;;;;4991566;28;20451;-68
2023/08/23 07:48:57;;;;;;;17.53;9.47;;;25.50;99.90;;;;;;4990540;28;20541;-69
2023/08/23 07:51:24;;;;;;;15.90;8.83;;;25.60;99.90;;;;;;4991836;28;20451;-70
2023/08/23 07:53:51;;;;;;;12.73;8.07;;;25.70;99.90;;;;;;4993539;28;20450;-79
2023/08/23 07:56:18;;;;;;;13.87;8.53;;;25.90;99.90;;;;;;4994377;28;20550;-79
2023/08/23 07:58:47;;;;;;;13.77;9.47;;;26.10;99.90;;;;;;4993392;28;20546;-79
2023/08/23 08:01:13;;;;;;;13.43;8.90;;;26.30;99.90;;;;;;4993569;28;20459;-80
2023/08/23 08:03:40;;;;;;;15.63;8.33;;;26.50;99.90;;;;;;4994665;28;20452;-79
2023/08/23 08:06:07;;;;;;;10.57;7.50;;;26.80;99.90;;;;;;4996285;28;20483;-80
2023/08/23 08:08:38;;;;;;;10.13;7.80;;;26.90;99.90;;;;;;4996877;28;20906;-79
2023/08/23 08:11:05;;;;;;;15.23;8.77;;;27.10;99.90;;;;;;4994936;28;20463;-79
2023/08/23 08:13:32;;;;;;;12.33;8.43;;;27.20;99.90;;;;;;4995411;28;20458;-79
2023/08/23 08:16:05;;;;;;;11.63;7.50;;;27.30;99.90;;;;;;4997895;28;20452;-79
2023/08/23 08:18:32;;;;;;;14.50;7.30;;;27.40;99.90;;;;;;4998945;28;20494;-79
2023/08/23 08:21:00;;;;;;;16.10;7.93;;;27.60;99.90;;;;;;4998624;28;20455;-80
2023/08/23 08:23:27;;;;;;;12.97;8.57;;;27.70;99.90;;;;;;5001189;28;20443;-79
2023/08/23 08:25:53;;;;;;;12.70;7.03;;;28.00;99.90;;;;;;4999068;28;20463;-79
2023/08/23 08:28:20;;;;;;;13.77;7.37;;;28.10;99.90;;;;;;4996773;28;21069;-79
2023/08/23 08:30:47;;;;;;;19.00;8.27;;;28.10;99.90;;;;;;4991154;28;20458;-76
2023/08/23 08:33:15;;;;;;;14.67;8.50;;;28.10;99.90;;;;;;4992010;28;20463;-76
2023/08/23 08:35:43;;;;;;;21.17;8.03;;;28.20;99.90;;;;;;4991660;28;20459;-76
2023/08/23 08:38:10;;;;;;;11.60;7.20;;;28.10;99.90;;;;;;4991926;28;20915;-77
2023/08/23 08:40:37;;;;;;;10.90;7.10;;;28.20;99.90;;;;;;4991772;28;20963;-76
2023/08/23 08:43:05;;;;;;;15.27;8.47;;;28.10;99.90;;;;;;4992091;28;21038;-76
2023/08/23 08:45:32;;;;;;;16.97;7.90;;;28.30;99.90;;;;;;4992960;28;20455;-76
2023/08/23 08:47:59;;;;;;;11.80;7.60;;;28.40;99.90;;;;;;4992187;28;20459;-76
2023/08/23 08:50:31;;;;;;;16.13;8.07;;;28.50;99.90;;;;;;4991889;28;20463;-77
2023/08/23 08:53:00;;;;;;;14.27;7.53;;;28.70;99.90;;;;;;4992520;28;20880;-76
2023/08/23 08:55:28;;;;;;;7.07;6.17;;;28.80;99.90;;;;;;4989880;28;20498;-76
2023/08/23 08:57:55;;;;;;;9.60;5.83;;;28.90;99.90;;;;;;4991366;28;20498;-75
2023/08/23 09:00:25;;;;;;;15.73;6.33;;;28.80;99.90;;;;;;4991333;28;20931;-75
2023/08/23 09:02:54;;;;;;;10.07;5.17;;;28.90;99.90;;;;;;4991316;28;20455;-75
2023/08/23 09:05:21;;;;;;;11.30;5.63;;;29.10;99.90;;;;;;4990990;28;20505;-69
2023/08/23 09:07:50;;;;;;;9.57;5.13;;;29.10;99.90;;;;;;4989495;28;20451;-74
2023/08/23 09:10:17;;;;;;;5.40;4.33;;;29.20;99.90;;;;;;4990398;28;20854;-75
2023/08/23 09:12:43;;;;;;;12.17;6.53;;;29.40;99.90;;;;;;4990954;28;20878;-74
2023/08/23 09:15:10;;;;;;;12.40;5.90;;;29.50;99.90;;;;;;4991058;28;20501;-75
2023/08/23 09:17:37;;;;;;;9.57;6.07;;;29.60;99.90;;;;;;4990411;28;20943;-74
2023/08/23 09:20:09;;;;;;;12.90;7.80;;;29.40;99.90;;;;;;4991178;28;20545;-74
2023/08/23 09:22:36;;;;;;;11.13;4.47;;;29.40;99.90;;;;;;4990455;28;20466;-74
2023/08/23 09:25:05;;;;;;;11.70;4.90;;;29.50;99.90;;;;;;4991129;28;20467;-74
2023/08/23 09:27:32;;;;;;;8.53;3.80;;;29.50;99.90;;;;;;4990820;28;20451;-74
2023/08/23 09:30:03;;;;;;;6.57;4.23;;;29.70;99.90;;;;;;4983989;28;20529;-75
2023/08/23 09:32:30;;;;;;;6.23;4.20;;;29.70;99.90;;;;;;4991123;28;20451;-75
2023/08/23 09:34:57;;;;;;;5.03;3.80;;;29.70;99.90;;;;;;4991434;28;20459;-75
2023/08/23 09:37:24;;;;;;;7.50;3.43;;;29.90;99.90;;;;;;4991180;28;20459;-75
2023/08/23 09:39:50;;;;;;;7.83;2.73;;;30.20;99.90;;;;;;4994585;28;20537;-75
2023/08/23 09:42:19;;;;;;;7.37;3.00;;;30.20;99.90;;;;;;4993995;28;20447;-75
2023/08/23 09:44:47;;;;;;;4.33;2.93;;;30.30;99.90;;;;;;4993721;28;20851;-75
2023/08/23 09:47:15;;;;;;;3.80;2.93;;;30.10;99.90;;;;;;4993338;28;20471;-75
2023/08/23 09:49:44;;;;;;;4.60;2.50;;;30.00;99.90;;;;;;4994176;28;20459;-75
2023/08/23 09:52:12;;;;;;;3.47;2.43;;;30.00;99.90;;;;;;4994081;28;20534;-75
2023/08/23 09:54:45;;;;;;;5.03;2.50;;;30.20;99.90;;;;;;4994120;28;20451;-75
2023/08/23 09:57:12;;;;;;;9.23;3.30;;;30.40;99.90;;;;;;4993482;28;20494;-76
2023/08/23 09:59:40;;;;;;;5.70;2.60;;;30.50;99.90;;;;;;4993823;28;20491;-75
2023/08/23 10:02:11;;;;;;;6.77;2.50;;;30.50;99.90;;;;;;4993984;28;20808;-75
2023/08/23 10:04:41;;;;;;;9.17;3.17;;;30.60;99.90;;;;;;4994669;28;20966;-75
2023/08/23 10:07:08;;;;;;;5.60;3.40;;;30.70;99.90;;;;;;4993793;28;20533;-76
2023/08/23 10:09:36;;;;;;;7.43;3.20;;;30.70;99.90;;;;;;4992794;28;21045;-75
2023/08/23 10:12:04;;;;;;;7.37;3.27;;;30.70;99.90;;;;;;4993686;28;20514;-75
2023/08/23 10:14:32;;;;;;;6.10;3.40;;;30.60;99.90;;;;;;4990934;28;20455;-76
2023/08/23 10:17:02;;;;;;;6.37;3.63;;;30.60;99.90;;;;;;4993170;28;20466;-76
2023/08/23 10:19:29;;;;;;;5.20;3.30;;;30.50;99.90;;;;;;4993641;28;20990;-76
2023/08/23 10:21:56;;;;;;;7.10;3.30;;;30.30;99.90;;;;;;4993410;28;21005;-75
2023/08/23 10:24:28;;;;;;;3.40;3.10;;;30.20;99.90;;;;;;4992753;28;20509;-75
2023/08/23 10:26:55;;;;;;;6.57;3.13;;;30.20;99.90;;;;;;4993405;28;20447;-76
2023/08/23 10:29:27;;;;;;;3.90;3.47;;;30.30;99.90;;;;;;4993212;28;20458;-76
2023/08/23 10:31:54;;;;;;;11.50;3.37;;;30.50;99.90;;;;;;4993073;28;20971;-76
2023/08/23 10:34:26;;;;;;;7.40;2.90;;;30.80;99.90;;;;;;4993263;28;20510;-75
2023/08/23 10:36:54;;;;;;;5.87;3.40;;;31.00;99.90;;;;;;4992916;28;20451;-75
2023/08/23 10:39:22;;;;;;;5.63;3.07;;;31.00;99.90;;;;;;4992975;28;20557;-76
2023/08/23 10:41:51;;;;;;;5.07;3.50;;;30.90;99.90;;;;;;4992652;28;20459;-76
2023/08/23 10:44:18;;;;;;;10.50;3.17;;;30.90;99.90;;;;;;4993263;28;20542;-76
2023/08/23 10:46:45;;;;;;;7.90;3.00;;;30.80;99.90;;;;;;4992771;28;20514;-76
2023/08/23 10:49:13;;;;;;;11.37;3.20;;;30.80;99.90;;;;;;4991667;28;20491;-76
2023/08/23 10:51:42;;;;;;;6.80;2.90;;;30.80;99.90;;;;;;4992713;28;20543;-76
2023/08/23 10:54:11;;;;;;;2.90;2.70;;;30.90;99.90;;;;;;4992477;28;20505;-76
2023/08/23 10:56:38;;;;;;;5.03;2.80;;;30.90;99.90;;;;;;4990554;28;20474;-76
2023/08/23 10:59:06;;;;;;;5.33;2.40;;;30.90;99.90;;;;;;4992550;28;20491;-77
2023/08/23 11:01:33;;;;;;;3.60;2.77;;;30.90;99.90;;;;;;4992466;28;20487;-76
2023/08/23 11:04:02;;;;;;;4.47;2.57;;;31.00;99.90;;;;;;4992928;28;20447;-76
2023/08/23 11:06:29;;;;;;;4.70;2.70;;;31.00;99.90;;;;;;4991352;28;20459;-76
2023/08/23 11:08:57;;;;;;;4.57;2.67;;;31.10;99.90;;;;;;4991544;28;20479;-76
2023/08/23 11:11:28;;;;;;;3.10;2.80;;;31.10;99.90;;;;;;4992490;28;20545;-77
2023/08/23 11:13:55;;;;;;;3.20;2.67;;;31.20;99.90;;;;;;4992474;28;20538;-76
2023/08/23 11:16:22;;;;;;;3.30;2.30;;;31.30;99.90;;;;;;4991264;28;20951;-76
2023/08/23 11:18:49;;;;;;;7.30;2.40;;;31.20;99.90;;;;;;4992398;28;20553;-76
2023/08/23 11:21:17;;;;;;;4.53;2.43;;;31.20;99.90;;;;;;4992239;28;20459;-78
2023/08/23 11:23:43;;;;;;;9.60;2.97;;;31.20;99.90;;;;;;4991692;28;20825;-77
2023/08/23 11:26:11;;;;;;;6.90;2.53;;;31.20;99.90;;;;;;4992517;28;20502;-76
2023/08/23 11:28:38;;;;;;;6.73;2.70;;;31.30;99.90;;;;;;4991429;28;20475;-76
2023/08/23 11:31:06;;;;;;;4.50;2.77;;;31.20;99.90;;;;;;4992454;28;20450;-75
2023/08/23 11:33:33;;;;;;;4.70;2.63;;;31.10;99.90;;;;;;4992182;28;20467;-75
2023/08/23 11:35:59;;;;;;;4.97;2.67;;;31.20;99.90;;;;;;4991976;28;20443;-76
2023/08/23 11:38:28;;;;;;;7.73;3.20;;;31.20;99.90;;;;;;4991223;28;20474;-76
2023/08/23 11:40:54;;;;;;;3.20;2.90;;;31.20;99.90;;;;;;4992108;28;20501;-76
2023/08/23 11:43:24;;;;;;;7.13;2.60;;;31.30;99.90;;;;;;4992399;28;20867;-76
2023/08/23 11:45:52;;;;;;;4.20;2.67;;;31.20;99.90;;;;;;4991283;28;20458;-76
2023/08/23 11:48:18;;;;;;;6.67;2.53;;;30.70;99.90;;;;;;4991396;28;20479;-76
2023/08/23 11:50:45;;;;;;;3.20;2.70;;;30.20;99.90;;;;;;4991685;28;20871;-75
2023/08/23 11:53:12;;;;;;;3.87;2.50;;;29.80;99.90;;;;;;4991976;28;20498;-75
2023/08/23 11:55:40;;;;;;;4.60;2.50;;;29.90;99.90;;;;;;4991888;28;20547;-76
2023/08/23 11:58:07;;;;;;;3.63;2.33;;;30.30;99.90;;;;;;4994827;28;20537;-75
2023/08/23 12:00:35;;;;;;;4.43;2.43;;;30.80;99.90;;;;;;4991685;28;20545;-75
2023/08/23 12:03:02;;;;;;;2.80;2.60;;;31.10;99.90;;;;;;4991271;28;20467;-75
2023/08/23 12:05:29;;;;;;;3.30;2.73;;;31.30;99.90;;;;;;4992020;28;20447;-74
2023/08/23 12:07:55;;;;;;;2.90;2.30;;;31.40;99.90;;;;;;4990963;28;20517;-75
2023/08/23 12:10:22;;;;;;;5.07;2.20;;;31.50;99.90;;;;;;4991003;28;20470;-75
2023/08/23 12:12:51;;;;;;;4.60;1.90;;;31.50;99.90;;;;;;4991894;28;20447;-74
2023/08/23 12:15:18;;;;;;;4.10;1.77;;;31.20;99.90;;;;;;4991462;28;20530;-75
2023/08/23 12:17:46;;;;;;;3.23;1.70;;;31.00;99.90;;;;;;4990640;28;20660;-74
2023/08/23 12:20:12;;;;;;;2.43;1.73;;;31.20;99.90;;;;;;4991454;28;20549;-74
2023/08/23 12:22:45;;;;;;;1.70;1.60;;;31.40;99.90;;;;;;4991127;28;20451;-74
2023/08/23 12:25:12;;;;;;;6.43;1.80;;;31.60;99.90;;;;;;4991822;28;20466;-74
2023/08/23 12:27:38;;;;;;;2.40;1.80;;;31.70;99.90;;;;;;4991387;28;20455;-74
2023/08/23 12:30:09;;;;;;;2.67;1.67;;;31.90;99.90;;;;;;4987274;28;20533;-74
2023/08/23 12:32:35;;;;;;;1.80;1.70;;;31.80;99.90;;;;;;4987436;28;20447;-74
2023/08/23 12:35:04;;;;;;;3.73;2.07;;;31.80;99.90;;;;;;4990872;28;20880;-74